OIIS  Semnan  Airport

Semnan, Iran

Add Bookmark
ICAO OIIS
Type Airport
Status Operational
Latitude
35° 35' 27" N
35.591099
Longitude
53° 29' 42" E
53.495098
Local (DST + 5) UTC (GMT + 4)
Jul 1, 2015 04:26 Jul 1, 2015 11:56
Sunrise-Sunset Local UTC
Begin Civil Twilight 05:12 00:42
Sunrise 05:42 01:12
Sunset 08:17 15:47
End Civil Twilight 08:47 16:17
VFR
VFR
MVFR
MVFR
IFR
IFR
LIFR
LIFR
Unknown
Unavailable

Current Weather

METAR Observed VFR
OIIS 302000Z 06004KT CAVOK 35/M01 Q1014 Tue, Jun 30, 2015 @ 20:00 UTC
(15 Hours, 56 Minutes ago)
Visual Flight Rules
Wind Visibility Conditions
060° at 4 knots (7 kph) 10 km or more
  • No significant weather
Temperatures Readings Precipitation
Current Temp
35°C
95°F
Dewpoint
-1°C
30°F
Humidity 10%
Altimeter 29.94" Hg
Sea Level Pressure 1,014 mb
Field Elevation
1,115 m
3,658 ft
None Recorded
-
-

CheckWX.com is intended as a tool to help pilots better visualize weather data. It is not intended as a substitute for an official weather briefing obtained from a Flight Service Station. CheckWX.com does not meet the FAA requirements for an official pre-flight weather briefing. Therefore, it's important that pilots still call and obtain an official FSS pre-flight weather briefing.

© 2007-2015 CheckWX.com
11:56:12 UTC